sensor_id;sensor_type;location;lat;lon;timestamp;P1;durP1;ratioP1;P2;durP2;ratioP2
12181;SDS011;6154;51.550;12.138;2023-05-19T00:04:23;3.42;;;1.52;;
12181;SDS011;6154;51.550;12.138;2023-05-19T00:09:58;2.95;;;1.65;;
12181;SDS011;6154;51.550;12.138;2023-05-19T00:12:27;5.05;;;2.30;;
12181;SDS011;6154;51.550;12.138;2023-05-19T00:17:44;2.35;;;1.80;;
12181;SDS011;6154;51.550;12.138;2023-05-19T00:20:12;1.58;;;1.42;;
12181;SDS011;6154;51.550;12.138;2023-05-19T00:28:52;4.65;;;1.70;;
12181;SDS011;6154;51.550;12.138;2023-05-19T00:31:20;2.83;;;1.73;;
12181;SDS011;6154;51.550;12.138;2023-05-19T00:42:55;3.05;;;1.52;;
12181;SDS011;6154;51.550;12.138;2023-05-19T00:49:04;2.67;;;1.37;;
12181;SDS011;6154;51.550;12.138;2023-05-19T00:51:40;4.05;;;1.92;;
12181;SDS011;6154;51.550;12.138;2023-05-19T00:57:01;2.35;;;1.73;;
12181;SDS011;6154;51.550;12.138;2023-05-19T00:59:29;3.35;;;1.92;;
12181;SDS011;6154;51.550;12.138;2023-05-19T01:01:58;2.97;;;1.70;;
12181;SDS011;6154;51.550;12.138;2023-05-19T01:04:28;2.87;;;1.65;;
12181;SDS011;6154;51.550;12.138;2023-05-19T01:07:03;3.72;;;1.45;;
12181;SDS011;6154;51.550;12.138;2023-05-19T01:10:20;3.05;;;1.67;;
12181;SDS011;6154;51.550;12.138;2023-05-19T01:12:49;3.72;;;1.90;;
12181;SDS011;6154;51.550;12.138;2023-05-19T01:15:22;3.87;;;1.83;;
12181;SDS011;6154;51.550;12.138;2023-05-19T01:20:45;2.08;;;1.73;;
12181;SDS011;6154;51.550;12.138;2023-05-19T01:23:32;1.92;;;1.42;;
12181;SDS011;6154;51.550;12.138;2023-05-19T01:26:14;2.35;;;1.48;;
12181;SDS011;6154;51.550;12.138;2023-05-19T01:28:54;2.35;;;1.33;;
12181;SDS011;6154;51.550;12.138;2023-05-19T01:31:36;3.17;;;1.62;;
12181;SDS011;6154;51.550;12.138;2023-05-19T01:34:47;2.37;;;1.27;;
12181;SDS011;6154;51.550;12.138;2023-05-19T01:37:23;3.17;;;1.37;;
12181;SDS011;6154;51.550;12.138;2023-05-19T01:40:41;4.55;;;1.52;;
12181;SDS011;6154;51.550;12.138;2023-05-19T01:43:30;2.03;;;1.80;;
12181;SDS011;6154;51.550;12.138;2023-05-19T01:46:04;4.20;;;1.70;;
12181;SDS011;6154;51.550;12.138;2023-05-19T01:48:52;1.40;;;1.30;;
12181;SDS011;6154;51.550;12.138;2023-05-19T01:51:55;4.80;;;1.75;;
12181;SDS011;6154;51.550;12.138;2023-05-19T01:54:25;1.65;;;1.55;;
12181;SDS011;6154;51.550;12.138;2023-05-19T01:56:55;1.50;;;1.35;;
12181;SDS011;6154;51.550;12.138;2023-05-19T02:09:14;3.55;;;1.55;;
12181;SDS011;6154;51.550;12.138;2023-05-19T02:12:23;5.97;;;2.00;;
12181;SDS011;6154;51.550;12.138;2023-05-19T02:15:02;4.32;;;1.75;;
12181;SDS011;6154;51.550;12.138;2023-05-19T02:17:33;2.20;;;1.30;;
12181;SDS011;6154;51.550;12.138;2023-05-19T02:20:06;1.80;;;1.27;;
12181;SDS011;6154;51.550;12.138;2023-05-19T02:22:35;7.00;;;1.73;;
12181;SDS011;6154;51.550;12.138;2023-05-19T02:25:17;2.33;;;1.85;;
12181;SDS011;6154;51.550;12.138;2023-05-19T02:28:46;1.30;;;0.98;;
12181;SDS011;6154;51.550;12.138;2023-05-19T02:31:14;4.45;;;1.50;;
12181;SDS011;6154;51.550;12.138;2023-05-19T02:33:42;3.00;;;1.25;;
12181;SDS011;6154;51.550;12.138;2023-05-19T02:36:49;2.75;;;1.50;;
12181;SDS011;6154;51.550;12.138;2023-05-19T02:39:36;3.10;;;1.40;;
12181;SDS011;6154;51.550;12.138;2023-05-19T02:42:06;4.18;;;1.75;;
12181;SDS011;6154;51.550;12.138;2023-05-19T02:50:52;2.65;;;1.50;;
12181;SDS011;6154;51.550;12.138;2023-05-19T02:56:26;1.95;;;1.30;;
12181;SDS011;6154;51.550;12.138;2023-05-19T02:58:56;2.45;;;1.42;;
12181;SDS011;6154;51.550;12.138;2023-05-19T03:01:37;3.35;;;1.80;;
12181;SDS011;6154;51.550;12.138;2023-05-19T03:04:10;3.70;;;1.48;;
12181;SDS011;6154;51.550;12.138;2023-05-19T03:06:54;2.83;;;1.67;;
12181;SDS011;6154;51.550;12.138;2023-05-19T03:09:23;3.83;;;1.12;;
12181;SDS011;6154;51.550;12.138;2023-05-19T03:11:52;3.92;;;1.52;;
12181;SDS011;6154;51.550;12.138;2023-05-19T03:14:44;4.47;;;1.67;;
12181;SDS011;6154;51.550;12.138;2023-05-19T03:17:18;1.50;;;1.20;;
12181;SDS011;6154;51.550;12.138;2023-05-19T03:20:01;5.62;;;1.60;;
12181;SDS011;6154;51.550;12.138;2023-05-19T03:22:44;4.10;;;1.52;;
12181;SDS011;6154;51.550;12.138;2023-05-19T03:25:13;4.85;;;1.58;;
12181;SDS011;6154;51.550;12.138;2023-05-19T03:27:41;2.95;;;1.50;;
12181;SDS011;6154;51.550;12.138;2023-05-19T03:30:12;3.37;;;1.55;;
12181;SDS011;6154;51.550;12.138;2023-05-19T03:32:42;1.65;;;1.25;;
12181;SDS011;6154;51.550;12.138;2023-05-19T03:35:11;3.53;;;1.10;;
12181;SDS011;6154;51.550;12.138;2023-05-19T03:37:40;1.15;;;1.05;;
12181;SDS011;6154;51.550;12.138;2023-05-19T03:40:56;4.47;;;1.20;;
12181;SDS011;6154;51.550;12.138;2023-05-19T03:43:46;3.78;;;1.60;;
12181;SDS011;6154;51.550;12.138;2023-05-19T03:46:18;4.40;;;1.75;;
12181;SDS011;6154;51.550;12.138;2023-05-19T03:49:05;2.92;;;1.60;;
12181;SDS011;6154;51.550;12.138;2023-05-19T03:51:36;3.20;;;1.25;;
12181;SDS011;6154;51.550;12.138;2023-05-19T03:54:30;4.07;;;1.08;;
12181;SDS011;6154;51.550;12.138;2023-05-19T03:56:59;2.90;;;1.40;;
12181;SDS011;6154;51.550;12.138;2023-05-19T03:59:29;3.25;;;1.30;;
12181;SDS011;6154;51.550;12.138;2023-05-19T04:09:02;4.45;;;1.87;;
12181;SDS011;6154;51.550;12.138;2023-05-19T04:11:38;4.47;;;1.75;;
12181;SDS011;6154;51.550;12.138;2023-05-19T04:14:07;10.18;;;1.62;;
12181;SDS011;6154;51.550;12.138;2023-05-19T04:16:35;2.17;;;1.15;;
12181;SDS011;6154;51.550;12.138;2023-05-19T04:19:07;2.92;;;1.42;;
12181;SDS011;6154;51.550;12.138;2023-05-19T04:21:38;2.92;;;1.42;;
12181;SDS011;6154;51.550;12.138;2023-05-19T04:24:06;2.40;;;1.55;;
12181;SDS011;6154;51.550;12.138;2023-05-19T04:27:06;1.58;;;1.37;;
12181;SDS011;6154;51.550;12.138;2023-05-19T04:29:38;2.87;;;1.27;;
12181;SDS011;6154;51.550;12.138;2023-05-19T04:32:06;2.30;;;1.40;;
12181;SDS011;6154;51.550;12.138;2023-05-19T04:34:37;3.95;;;1.30;;
12181;SDS011;6154;51.550;12.138;2023-05-19T04:40:26;3.00;;;1.23;;
12181;SDS011;6154;51.550;12.138;2023-05-19T04:42:57;1.30;;;1.17;;
12181;SDS011;6154;51.550;12.138;2023-05-19T04:45:28;4.22;;;1.45;;
12181;SDS011;6154;51.550;12.138;2023-05-19T04:48:03;5.18;;;1.60;;
12181;SDS011;6154;51.550;12.138;2023-05-19T04:50:33;3.47;;;1.50;;
12181;SDS011;6154;51.550;12.138;2023-05-19T04:56:26;0.98;;;0.82;;
12181;SDS011;6154;51.550;12.138;2023-05-19T04:59:25;7.28;;;1.98;;
12181;SDS011;6154;51.550;12.138;2023-05-19T05:02:37;3.85;;;1.20;;
12181;SDS011;6154;51.550;12.138;2023-05-19T05:05:07;2.30;;;1.10;;
12181;SDS011;6154;51.550;12.138;2023-05-19T05:07:36;4.20;;;1.50;;
12181;SDS011;6154;51.550;12.138;2023-05-19T05:10:35;1.42;;;1.05;;
12181;SDS011;6154;51.550;12.138;2023-05-19T05:13:06;2.72;;;1.55;;
12181;SDS011;6154;51.550;12.138;2023-05-19T05:15:37;1.77;;;1.10;;
12181;SDS011;6154;51.550;12.138;2023-05-19T05:18:07;4.07;;;1.35;;
12181;SDS011;6154;51.550;12.138;2023-05-19T05:20:54;1.77;;;1.25;;
12181;SDS011;6154;51.550;12.138;2023-05-19T05:23:34;1.85;;;1.12;;
12181;SDS011;6154;51.550;12.138;2023-05-19T05:26:06;4.37;;;1.62;;
12181;SDS011;6154;51.550;12.138;2023-05-19T05:28:38;2.22;;;1.27;;
12181;SDS011;6154;51.550;12.138;2023-05-19T05:31:09;2.50;;;1.52;;
12181;SDS011;6154;51.550;12.138;2023-05-19T05:33:43;3.05;;;1.48;;
12181;SDS011;6154;51.550;12.138;2023-05-19T05:36:12;8.32;;;1.42;;
12181;SDS011;6154;51.550;12.138;2023-05-19T05:38:43;3.60;;;1.33;;
12181;SDS011;6154;51.550;12.138;2023-05-19T05:42:11;3.15;;;1.83;;
12181;SDS011;6154;51.550;12.138;2023-05-19T05:44:40;7.05;;;1.50;;
12181;SDS011;6154;51.550;12.138;2023-05-19T05:47:08;1.75;;;1.10;;
12181;SDS011;6154;51.550;12.138;2023-05-19T05:49:43;3.80;;;1.45;;
12181;SDS011;6154;51.550;12.138;2023-05-19T05:52:15;3.72;;;1.62;;
12181;SDS011;6154;51.550;12.138;2023-05-19T05:54:48;4.20;;;1.10;;
12181;SDS011;6154;51.550;12.138;2023-05-19T05:57:29;2.58;;;1.10;;
12181;SDS011;6154;51.550;12.138;2023-05-19T06:00:01;2.83;;;1.12;;
12181;SDS011;6154;51.550;12.138;2023-05-19T06:02:48;3.40;;;1.20;;
12181;SDS011;6154;51.550;12.138;2023-05-19T06:05:50;2.95;;;1.20;;
12181;SDS011;6154;51.550;12.138;2023-05-19T06:08:41;2.08;;;1.30;;
12181;SDS011;6154;51.550;12.138;2023-05-19T06:11:10;4.35;;;1.25;;
12181;SDS011;6154;51.550;12.138;2023-05-19T06:13:40;5.18;;;1.15;;
12181;SDS011;6154;51.550;12.138;2023-05-19T06:16:09;5.32;;;1.10;;
12181;SDS011;6154;51.550;12.138;2023-05-19T06:18:50;2.37;;;1.20;;
12181;SDS011;6154;51.550;12.138;2023-05-19T06:21:22;1.67;;;1.08;;
12181;SDS011;6154;51.550;12.138;2023-05-19T06:23:51;5.20;;;1.33;;
12181;SDS011;6154;51.550;12.138;2023-05-19T06:26:29;1.58;;;1.10;;
12181;SDS011;6154;51.550;12.138;2023-05-19T06:29:55;2.50;;;1.20;;
12181;SDS011;6154;51.550;12.138;2023-05-19T06:32:24;2.17;;;1.33;;
12181;SDS011;6154;51.550;12.138;2023-05-19T06:34:53;2.00;;;1.10;;
12181;SDS011;6154;51.550;12.138;2023-05-19T06:37:22;2.30;;;1.27;;
12181;SDS011;6154;51.550;12.138;2023-05-19T06:39:53;3.10;;;1.15;;
12181;SDS011;6154;51.550;12.138;2023-05-19T06:43:00;1.23;;;1.08;;
12181;SDS011;6154;51.550;12.138;2023-05-19T06:45:37;2.20;;;1.20;;
12181;SDS011;6154;51.550;12.138;2023-05-19T06:48:31;2.67;;;1.50;;
12181;SDS011;6154;51.550;12.138;2023-05-19T06:51:04;2.72;;;1.30;;
12181;SDS011;6154;51.550;12.138;2023-05-19T06:53:32;4.07;;;1.10;;
12181;SDS011;6154;51.550;12.138;2023-05-19T06:56:02;3.67;;;1.50;;
12181;SDS011;6154;51.550;12.138;2023-05-19T06:58:31;3.35;;;1.37;;
12181;SDS011;6154;51.550;12.138;2023-05-19T07:01:03;1.37;;;1.00;;
12181;SDS011;6154;51.550;12.138;2023-05-19T07:03:47;3.53;;;1.50;;
12181;SDS011;6154;51.550;12.138;2023-05-19T07:06:25;4.18;;;1.55;;
12181;SDS011;6154;51.550;12.138;2023-05-19T07:09:18;5.20;;;1.42;;
12181;SDS011;6154;51.550;12.138;2023-05-19T07:11:47;3.37;;;1.37;;
12181;SDS011;6154;51.550;12.138;2023-05-19T07:14:16;2.53;;;1.17;;
12181;SDS011;6154;51.550;12.138;2023-05-19T07:17:20;2.15;;;1.25;;
12181;SDS011;6154;51.550;12.138;2023-05-19T07:19:53;1.87;;;1.15;;
12181;SDS011;6154;51.550;12.138;2023-05-19T07:22:38;2.47;;;0.82;;
12181;SDS011;6154;51.550;12.138;2023-05-19T07:25:08;2.20;;;1.30;;
12181;SDS011;6154;51.550;12.138;2023-05-19T07:27:37;6.05;;;1.42;;
12181;SDS011;6154;51.550;12.138;2023-05-19T07:30:06;2.00;;;1.00;;
12181;SDS011;6154;51.550;12.138;2023-05-19T07:32:47;2.08;;;0.98;;
12181;SDS011;6154;51.550;12.138;2023-05-19T07:35:16;6.22;;;0.82;;
12181;SDS011;6154;51.550;12.138;2023-05-19T07:37:45;3.20;;;1.20;;
12181;SDS011;6154;51.550;12.138;2023-05-19T07:40:13;0.88;;;0.77;;
12181;SDS011;6154;51.550;12.138;2023-05-19T07:42:42;1.27;;;0.90;;
12181;SDS011;6154;51.550;12.138;2023-05-19T07:45:10;3.03;;;1.10;;
12181;SDS011;6154;51.550;12.138;2023-05-19T07:47:51;4.22;;;1.20;;
12181;SDS011;6154;51.550;12.138;2023-05-19T07:50:22;2.92;;;1.45;;
12181;SDS011;6154;51.550;12.138;2023-05-19T07:53:23;1.90;;;1.02;;
12181;SDS011;6154;51.550;12.138;2023-05-19T07:55:55;1.98;;;0.93;;
12181;SDS011;6154;51.550;12.138;2023-05-19T07:58:24;2.65;;;0.90;;
12181;SDS011;6154;51.550;12.138;2023-05-19T08:00:55;1.10;;;0.68;;
12181;SDS011;6154;51.550;12.138;2023-05-19T08:03:43;2.28;;;0.95;;
12181;SDS011;6154;51.550;12.138;2023-05-19T08:06:28;1.33;;;0.88;;
12181;SDS011;6154;51.550;12.138;2023-05-19T08:08:57;1.27;;;0.80;;
12181;SDS011;6154;51.550;12.138;2023-05-19T08:11:25;2.30;;;0.68;;
12181;SDS011;6154;51.550;12.138;2023-05-19T08:13:54;1.15;;;0.73;;
12181;SDS011;6154;51.550;12.138;2023-05-19T08:16:22;1.35;;;0.98;;
12181;SDS011;6154;51.550;12.138;2023-05-19T08:18:55;0.85;;;0.77;;
12181;SDS011;6154;51.550;12.138;2023-05-19T08:21:24;0.85;;;0.85;;
12181;SDS011;6154;51.550;12.138;2023-05-19T08:23:52;1.75;;;0.75;;
12181;SDS011;6154;51.550;12.138;2023-05-19T08:26:20;1.48;;;0.88;;
12181;SDS011;6154;51.550;12.138;2023-05-19T08:28:53;1.85;;;1.00;;
12181;SDS011;6154;51.550;12.138;2023-05-19T08:31:21;0.93;;;0.68;;
12181;SDS011;6154;51.550;12.138;2023-05-19T08:33:50;1.35;;;1.00;;
12181;SDS011;6154;51.550;12.138;2023-05-19T08:36:20;2.60;;;0.70;;
12181;SDS011;6154;51.550;12.138;2023-05-19T08:38:50;2.95;;;1.10;;
12181;SDS011;6154;51.550;12.138;2023-05-19T08:41:19;2.67;;;0.80;;
12181;SDS011;6154;51.550;12.138;2023-05-19T08:43:47;1.02;;;0.70;;
12181;SDS011;6154;51.550;12.138;2023-05-19T08:46:15;1.98;;;0.60;;
12181;SDS011;6154;51.550;12.138;2023-05-19T08:49:10;1.87;;;0.90;;
12181;SDS011;6154;51.550;12.138;2023-05-19T08:51:44;4.15;;;0.90;;
12181;SDS011;6154;51.550;12.138;2023-05-19T08:54:21;0.95;;;0.70;;
12181;SDS011;6154;51.550;12.138;2023-05-19T08:56:53;0.95;;;0.80;;
12181;SDS011;6154;51.550;12.138;2023-05-19T08:59:23;0.70;;;0.65;;
12181;SDS011;6154;51.550;12.138;2023-05-19T09:01:52;1.70;;;0.80;;
12181;SDS011;6154;51.550;12.138;2023-05-19T09:04:22;1.17;;;0.52;;
12181;SDS011;6154;51.550;12.138;2023-05-19T09:06:58;1.23;;;0.60;;
12181;SDS011;6154;51.550;12.138;2023-05-19T09:09:29;0.30;;;0.30;;
12181;SDS011;6154;51.550;12.138;2023-05-19T09:11:58;1.08;;;0.57;;
12181;SDS011;6154;51.550;12.138;2023-05-19T09:14:26;1.33;;;0.68;;
12181;SDS011;6154;51.550;12.138;2023-05-19T09:16:55;3.00;;;0.68;;
12181;SDS011;6154;51.550;12.138;2023-05-19T09:19:23;1.08;;;0.70;;
12181;SDS011;6154;51.550;12.138;2023-05-19T09:22:00;1.00;;;0.90;;
12181;SDS011;6154;51.550;12.138;2023-05-19T09:24:30;1.37;;;0.73;;
12181;SDS011;6154;51.550;12.138;2023-05-19T09:27:13;1.52;;;0.80;;
12181;SDS011;6154;51.550;12.138;2023-05-19T09:29:49;1.37;;;0.80;;
12181;SDS011;6154;51.550;12.138;2023-05-19T09:32:23;0.98;;;0.62;;
12181;SDS011;6154;51.550;12.138;2023-05-19T09:34:53;1.42;;;0.60;;
12181;SDS011;6154;51.550;12.138;2023-05-19T09:37:23;1.35;;;0.70;;
12181;SDS011;6154;51.550;12.138;2023-05-19T09:39:51;0.82;;;0.73;;
12181;SDS011;6154;51.550;12.138;2023-05-19T09:42:23;1.90;;;0.88;;
12181;SDS011;6154;51.550;12.138;2023-05-19T09:44:57;2.05;;;0.70;;
12181;SDS011;6154;51.550;12.138;2023-05-19T09:47:31;2.10;;;0.80;;
12181;SDS011;6154;51.550;12.138;2023-05-19T09:50:00;0.57;;;0.52;;
12181;SDS011;6154;51.550;12.138;2023-05-19T09:52:31;1.40;;;1.00;;
12181;SDS011;6154;51.550;12.138;2023-05-19T09:55:02;1.15;;;0.70;;
12181;SDS011;6154;51.550;12.138;2023-05-19T09:57:32;1.00;;;0.88;;
12181;SDS011;6154;51.550;12.138;2023-05-19T10:18:31;1.20;;;0.60;;
12181;SDS011;6154;51.550;12.138;2023-05-19T10:21:04;0.80;;;0.55;;
12181;SDS011;6154;51.550;12.138;2023-05-19T10:23:38;1.35;;;0.57;;
12181;SDS011;6154;51.550;12.138;2023-05-19T10:27:40;1.25;;;0.60;;
12181;SDS011;6154;51.550;12.138;2023-05-19T10:30:17;1.52;;;0.73;;
12181;SDS011;6154;51.550;12.138;2023-05-19T10:32:49;1.40;;;0.60;;
12181;SDS011;6154;51.550;12.138;2023-05-19T10:35:31;0.90;;;0.62;;
12181;SDS011;6154;51.550;12.138;2023-05-19T10:41:20;2.58;;;0.82;;
12181;SDS011;6154;51.550;12.138;2023-05-19T10:51:06;2.30;;;0.90;;
12181;SDS011;6154;51.550;12.138;2023-05-19T10:53:39;3.42;;;0.60;;
12181;SDS011;6154;51.550;12.138;2023-05-19T10:56:27;0.68;;;0.50;;
12181;SDS011;6154;51.550;12.138;2023-05-19T11:01:55;1.10;;;0.60;;
12181;SDS011;6154;51.550;12.138;2023-05-19T11:07:18;2.25;;;0.75;;
12181;SDS011;6154;51.550;12.138;2023-05-19T11:15:18;0.73;;;0.70;;
12181;SDS011;6154;51.550;12.138;2023-05-19T11:17:53;2.37;;;0.75;;
12181;SDS011;6154;51.550;12.138;2023-05-19T11:20:22;1.45;;;0.62;;
12181;SDS011;6154;51.550;12.138;2023-05-19T11:23:05;2.50;;;0.62;;
12181;SDS011;6154;51.550;12.138;2023-05-19T11:25:42;1.80;;;0.90;;
12181;SDS011;6154;51.550;12.138;2023-05-19T11:28:11;1.95;;;0.70;;
12181;SDS011;6154;51.550;12.138;2023-05-19T11:34:12;0.65;;;0.65;;
12181;SDS011;6154;51.550;12.138;2023-05-19T11:36:42;1.00;;;0.77;;
12181;SDS011;6154;51.550;12.138;2023-05-19T11:39:13;0.93;;;0.70;;
12181;SDS011;6154;51.550;12.138;2023-05-19T11:41:42;1.02;;;0.80;;
12181;SDS011;6154;51.550;12.138;2023-05-19T11:44:10;1.37;;;0.90;;
12181;SDS011;6154;51.550;12.138;2023-05-19T11:46:38;1.67;;;0.70;;
12181;SDS011;6154;51.550;12.138;2023-05-19T11:49:06;1.65;;;0.75;;
12181;SDS011;6154;51.550;12.138;2023-05-19T11:51:38;1.77;;;0.90;;
12181;SDS011;6154;51.550;12.138;2023-05-19T11:54:07;0.90;;;0.90;;
12181;SDS011;6154;51.550;12.138;2023-05-19T11:56:55;1.12;;;0.98;;
12181;SDS011;6154;51.550;12.138;2023-05-19T11:59:28;1.83;;;0.75;;
12181;SDS011;6154;51.550;12.138;2023-05-19T12:02:01;1.10;;;1.00;;
12181;SDS011;6154;51.550;12.138;2023-05-19T12:04:30;2.30;;;1.00;;
12181;SDS011;6154;51.550;12.138;2023-05-19T12:06:58;2.33;;;1.10;;
12181;SDS011;6154;51.550;12.138;2023-05-19T12:09:27;2.08;;;1.00;;
12181;SDS011;6154;51.550;12.138;2023-05-19T12:11:57;1.77;;;0.80;;
12181;SDS011;6154;51.550;12.138;2023-05-19T12:14:25;1.65;;;0.93;;
12181;SDS011;6154;51.550;12.138;2023-05-19T12:17:37;1.65;;;1.08;;
12181;SDS011;6154;51.550;12.138;2023-05-19T12:20:06;1.30;;;0.98;;
12181;SDS011;6154;51.550;12.138;2023-05-19T12:22:36;2.15;;;1.20;;
12181;SDS011;6154;51.550;12.138;2023-05-19T12:25:04;0.65;;;0.60;;
12181;SDS011;6154;51.550;12.138;2023-05-19T12:27:35;3.00;;;1.35;;
12181;SDS011;6154;51.550;12.138;2023-05-19T12:30:04;1.52;;;0.80;;
12181;SDS011;6154;51.550;12.138;2023-05-19T12:32:34;2.10;;;0.80;;
12181;SDS011;6154;51.550;12.138;2023-05-19T12:35:03;2.47;;;0.80;;
12181;SDS011;6154;51.550;12.138;2023-05-19T12:37:32;1.95;;;0.80;;
12181;SDS011;6154;51.550;12.138;2023-05-19T12:40:02;0.98;;;0.88;;
12181;SDS011;6154;51.550;12.138;2023-05-19T12:42:31;3.50;;;1.10;;
12181;SDS011;6154;51.550;12.138;2023-05-19T12:45:02;2.00;;;0.80;;
12181;SDS011;6154;51.550;12.138;2023-05-19T12:47:32;2.55;;;0.75;;
12181;SDS011;6154;51.550;12.138;2023-05-19T12:50:02;1.42;;;1.00;;
12181;SDS011;6154;51.550;12.138;2023-05-19T12:52:43;2.90;;;0.98;;
12181;SDS011;6154;51.550;12.138;2023-05-19T12:55:14;1.87;;;0.80;;
12181;SDS011;6154;51.550;12.138;2023-05-19T12:57:43;1.00;;;0.80;;
12181;SDS011;6154;51.550;12.138;2023-05-19T13:00:18;1.10;;;0.80;;
12181;SDS011;6154;51.550;12.138;2023-05-19T13:02:56;2.65;;;0.88;;
12181;SDS011;6154;51.550;12.138;2023-05-19T13:05:42;2.47;;;0.90;;
12181;SDS011;6154;51.550;12.138;2023-05-19T13:08:13;2.50;;;0.90;;
12181;SDS011;6154;51.550;12.138;2023-05-19T13:10:55;1.77;;;0.98;;
12181;SDS011;6154;51.550;12.138;2023-05-19T13:13:44;1.58;;;0.73;;
12181;SDS011;6154;51.550;12.138;2023-05-19T13:16:33;1.00;;;0.90;;
12181;SDS011;6154;51.550;12.138;2023-05-19T13:19:17;2.25;;;0.90;;
12181;SDS011;6154;51.550;12.138;2023-05-19T13:21:49;1.83;;;0.70;;
12181;SDS011;6154;51.550;12.138;2023-05-19T13:24:30;2.40;;;0.80;;
12181;SDS011;6154;51.550;12.138;2023-05-19T13:28:00;2.92;;;0.90;;
12181;SDS011;6154;51.550;12.138;2023-05-19T13:31:13;1.55;;;0.90;;
12181;SDS011;6154;51.550;12.138;2023-05-19T13:34:04;1.12;;;0.98;;
12181;SDS011;6154;51.550;12.138;2023-05-19T13:40:00;1.33;;;1.02;;
12181;SDS011;6154;51.550;12.138;2023-05-19T13:42:31;0.80;;;0.73;;
12181;SDS011;6154;51.550;12.138;2023-05-19T13:44:59;2.55;;;0.80;;
12181;SDS011;6154;51.550;12.138;2023-05-19T13:47:28;1.65;;;0.88;;
12181;SDS011;6154;51.550;12.138;2023-05-19T13:49:58;1.25;;;0.88;;
12181;SDS011;6154;51.550;12.138;2023-05-19T13:52:27;2.17;;;1.20;;
12181;SDS011;6154;51.550;12.138;2023-05-19T13:54:56;1.50;;;1.02;;
12181;SDS011;6154;51.550;12.138;2023-05-19T14:00:19;1.25;;;1.12;;
12181;SDS011;6154;51.550;12.138;2023-05-19T14:02:48;0.80;;;0.70;;
12181;SDS011;6154;51.550;12.138;2023-05-19T14:05:17;1.62;;;1.10;;
12181;SDS011;6154;51.550;12.138;2023-05-19T14:07:55;1.25;;;1.00;;
12181;SDS011;6154;51.550;12.138;2023-05-19T14:13:40;1.30;;;0.90;;
12181;SDS011;6154;51.550;12.138;2023-05-19T14:23:50;2.45;;;1.08;;
12181;SDS011;6154;51.550;12.138;2023-05-19T14:26:18;2.08;;;0.90;;
12181;SDS011;6154;51.550;12.138;2023-05-19T14:34:42;3.22;;;1.12;;
12181;SDS011;6154;51.550;12.138;2023-05-19T14:37:10;1.48;;;0.90;;
12181;SDS011;6154;51.550;12.138;2023-05-19T14:48:45;1.95;;;0.95;;
12181;SDS011;6154;51.550;12.138;2023-05-19T14:51:13;1.62;;;1.10;;
12181;SDS011;6154;51.550;12.138;2023-05-19T14:53:42;2.10;;;0.95;;
12181;SDS011;6154;51.550;12.138;2023-05-19T14:56:10;1.73;;;1.00;;
12181;SDS011;6154;51.550;12.138;2023-05-19T14:58:38;1.20;;;0.90;;
12181;SDS011;6154;51.550;12.138;2023-05-19T15:01:07;1.55;;;0.93;;
12181;SDS011;6154;51.550;12.138;2023-05-19T15:03:35;2.55;;;1.30;;
12181;SDS011;6154;51.550;12.138;2023-05-19T15:06:08;1.10;;;1.00;;
12181;SDS011;6154;51.550;12.138;2023-05-19T15:08:43;1.85;;;1.05;;
12181;SDS011;6154;51.550;12.138;2023-05-19T15:11:21;1.33;;;0.95;;
12181;SDS011;6154;51.550;12.138;2023-05-19T15:13:49;0.80;;;0.80;;
12181;SDS011;6154;51.550;12.138;2023-05-19T15:16:17;1.73;;;1.20;;
12181;SDS011;6154;51.550;12.138;2023-05-19T15:18:47;4.12;;;1.02;;
12181;SDS011;6154;51.550;12.138;2023-05-19T15:21:18;9.90;;;1.40;;
12181;SDS011;6154;51.550;12.138;2023-05-19T15:23:47;2.03;;;1.08;;
12181;SDS011;6154;51.550;12.138;2023-05-19T15:26:16;3.20;;;1.00;;
12181;SDS011;6154;51.550;12.138;2023-05-19T15:28:59;2.03;;;1.10;;
12181;SDS011;6154;51.550;12.138;2023-05-19T15:32:27;1.75;;;1.10;;
12181;SDS011;6154;51.550;12.138;2023-05-19T15:34:56;1.33;;;1.10;;
12181;SDS011;6154;51.550;12.138;2023-05-19T15:37:28;1.37;;;0.95;;
12181;SDS011;6154;51.550;12.138;2023-05-19T15:39:56;1.62;;;0.93;;
12181;SDS011;6154;51.550;12.138;2023-05-19T15:42:25;1.17;;;0.88;;
12181;SDS011;6154;51.550;12.138;2023-05-19T15:44:57;1.10;;;1.00;;
12181;SDS011;6154;51.550;12.138;2023-05-19T15:47:26;1.08;;;0.93;;
12181;SDS011;6154;51.550;12.138;2023-05-19T15:49:54;2.60;;;0.90;;
12181;SDS011;6154;51.550;12.138;2023-05-19T15:52:22;2.55;;;1.15;;
12181;SDS011;6154;51.550;12.138;2023-05-19T15:54:52;2.08;;;1.15;;
12181;SDS011;6154;51.550;12.138;2023-05-19T15:57:24;1.27;;;1.10;;
12181;SDS011;6154;51.550;12.138;2023-05-19T15:59:53;1.30;;;1.12;;
12181;SDS011;6154;51.550;12.138;2023-05-19T16:02:22;1.73;;;1.30;;
12181;SDS011;6154;51.550;12.138;2023-05-19T16:04:51;2.60;;;1.00;;
12181;SDS011;6154;51.550;12.138;2023-05-19T16:07:19;1.30;;;1.20;;
12181;SDS011;6154;51.550;12.138;2023-05-19T16:09:49;1.45;;;1.23;;
12181;SDS011;6154;51.550;12.138;2023-05-19T16:12:19;1.80;;;0.93;;
12181;SDS011;6154;51.550;12.138;2023-05-19T16:14:48;1.20;;;0.75;;
12181;SDS011;6154;51.550;12.138;2023-05-19T16:17:16;1.40;;;1.30;;
12181;SDS011;6154;51.550;12.138;2023-05-19T16:19:44;1.42;;;0.90;;
12181;SDS011;6154;51.550;12.138;2023-05-19T16:22:12;1.10;;;1.00;;
12181;SDS011;6154;51.550;12.138;2023-05-19T16:24:43;2.15;;;1.10;;
12181;SDS011;6154;51.550;12.138;2023-05-19T16:27:31;2.67;;;1.20;;
12181;SDS011;6154;51.550;12.138;2023-05-19T16:30:06;2.25;;;1.12;;
12181;SDS011;6154;51.550;12.138;2023-05-19T16:32:52;1.83;;;1.00;;
12181;SDS011;6154;51.550;12.138;2023-05-19T16:35:20;1.70;;;1.00;;
12181;SDS011;6154;51.550;12.138;2023-05-19T16:37:49;2.37;;;1.15;;
12181;SDS011;6154;51.550;12.138;2023-05-19T16:40:17;0.80;;;0.80;;
12181;SDS011;6154;51.550;12.138;2023-05-19T16:42:47;3.87;;;1.08;;
12181;SDS011;6154;51.550;12.138;2023-05-19T16:45:16;2.42;;;1.23;;
12181;SDS011;6154;51.550;12.138;2023-05-19T16:47:45;1.60;;;1.20;;
12181;SDS011;6154;51.550;12.138;2023-05-19T16:56:14;2.58;;;1.12;;
12181;SDS011;6154;51.550;12.138;2023-05-19T16:58:44;2.40;;;1.27;;
12181;SDS011;6154;51.550;12.138;2023-05-19T17:04:42;1.12;;;1.02;;
12181;SDS011;6154;51.550;12.138;2023-05-19T17:07:21;2.55;;;1.20;;
12181;SDS011;6154;51.550;12.138;2023-05-19T17:10:57;2.62;;;1.20;;
12181;SDS011;6154;51.550;12.138;2023-05-19T17:13:25;1.10;;;1.00;;
12181;SDS011;6154;51.550;12.138;2023-05-19T17:25:25;1.00;;;0.98;;
12181;SDS011;6154;51.550;12.138;2023-05-19T17:27:53;1.02;;;0.80;;
12181;SDS011;6154;51.550;12.138;2023-05-19T17:30:21;1.75;;;0.90;;
12181;SDS011;6154;51.550;12.138;2023-05-19T17:32:50;1.37;;;1.17;;
12181;SDS011;6154;51.550;12.138;2023-05-19T17:38:38;1.08;;;0.95;;
12181;SDS011;6154;51.550;12.138;2023-05-19T17:43:55;4.72;;;1.10;;
12181;SDS011;6154;51.550;12.138;2023-05-19T17:46:24;0.80;;;0.80;;
12181;SDS011;6154;51.550;12.138;2023-05-19T17:52:11;1.30;;;1.02;;
12181;SDS011;6154;51.550;12.138;2023-05-19T17:54:42;2.22;;;1.10;;
12181;SDS011;6154;51.550;12.138;2023-05-19T17:57:11;1.90;;;1.12;;
12181;SDS011;6154;51.550;12.138;2023-05-19T17:59:44;3.17;;;1.25;;
12181;SDS011;6154;51.550;12.138;2023-05-19T18:02:12;1.12;;;1.02;;
12181;SDS011;6154;51.550;12.138;2023-05-19T18:04:42;1.62;;;1.15;;
12181;SDS011;6154;51.550;12.138;2023-05-19T18:07:10;1.87;;;1.10;;
12181;SDS011;6154;51.550;12.138;2023-05-19T18:09:43;2.40;;;0.90;;
12181;SDS011;6154;51.550;12.138;2023-05-19T18:12:13;1.48;;;1.10;;
12181;SDS011;6154;51.550;12.138;2023-05-19T18:14:45;1.17;;;0.82;;
12181;SDS011;6154;51.550;12.138;2023-05-19T18:17:30;1.00;;;0.90;;
12181;SDS011;6154;51.550;12.138;2023-05-19T18:25:52;1.45;;;1.17;;
12181;SDS011;6154;51.550;12.138;2023-05-19T18:28:40;3.28;;;1.17;;
12181;SDS011;6154;51.550;12.138;2023-05-19T18:31:17;0.85;;;0.80;;
12181;SDS011;6154;51.550;12.138;2023-05-19T18:33:45;1.65;;;0.88;;